x

East Dellwood (46207) Wave Buoy

2:00am - Fri 22nd May 2015 All times are PDT. -7 hours from GMT.

  • Sig Wave height 7.9ft
  • Peak Period 7s
  • Wind
    20mph, 27mph gusts
  • Sea Temp 52°f
  • Air Temp 50°f
  • Sea Pressure 1016.3mb
  • East Dellwood
  • East Dellwood

More Historic Weather Station data

Upgrade to MSW Pro to gain access to the past 30 days of data for over 8000 Wavebouys and Weather Stations around the globe.

Join Pro

Comparision Forecast

View Surf forecast
   
Fri 05/22 2:00am 8ft 7s 20 27 mph 1016.3mb 52f 50f
1:00am 8ft 8s 22 27 mph 1016.3mb 52f 50f
12:00am 7ft 7s 22 27 mph 1016.2mb 52f 50f
Thu 05/21 11:00pm 7ft 8s 25 29 mph 1016mb 52f 50f
10:00pm 6ft 7s 22 27 mph 1016mb 52f 50f
9:00pm 6ft 7s 22 27 mph 1015.5mb 52f 50f
8:00pm 6ft 8s 22 25 mph 1015.4mb 52f 50f
7:00pm 6ft 7s 18 22 mph 1015.8mb 52f 51f
6:00pm 6ft 7s 20 22 mph 1015.9mb 52f 51f
5:00pm 6ft 7s 16 20 mph 1016.1mb 53f 51f
4:00pm 6.5ft 7s 16 20 mph 1016.3mb 53f 51f
3:00pm 6ft 7s 18 22 mph 1016.4mb 53f 51f
2:00pm 6.5ft 7s 18 22 mph 1016.6mb 53f 51f
1:00pm  -   -  18
mph
- - -
12:00pm 6ft 11s 18 22 mph 1016.8mb 52f 50f
11:00am 6.5ft 7s 18 22 mph 1016.8mb 52f 50f
10:00am 6.5ft 7s 18 22 mph 1016.8mb 52f 50f
9:00am 6ft 7s 18 20 mph 1016.6mb 52f 49f
8:00am 7ft 7s 18 22 mph 1016.5mb 52f 50f
7:00am 7ft 7s 18 22 mph 1016.4mb 52f 50f
6:00am 7ft 7s 20 25 mph 1016.1mb 52f 50f
5:00am 6.5ft 7s 22 29 mph 1015.9mb 52f 49f
4:00am 6.5ft 6s 20 25 mph 1016.2mb 52f 50f
3:00am 7ft 6s 20 25 mph 1016.3mb 52f 50f
2:00am 6.5ft 7s 20 25 mph 1016.5mb 52f 50f
1:00am 6.5ft 12s 20 25 mph 1016.7mb 52f 50f
12:00am 6ft 12s 20 27 mph 1016.9mb 52f 50f
Wed 05/20 11:00pm 6ft 12s 20 25 mph 1017.1mb 52f 50f
10:00pm  -   -  22
mph
1017.3mb - 50f
9:00pm 5.5ft 12s 22 27 mph 1017.2mb 52f 50f
8:00pm 5.5ft 11s 20 22 mph 1017.3mb 52f 50f
7:00pm 5.5ft 11s 20 22 mph 1017.5mb 52f 50f
6:00pm 5ft 13s 20 22 mph 1017.8mb 52f 51f
5:00pm 5ft 13s 16 20 mph 1018.3mb 52f 51f
4:00pm 5ft 12s 13 18 mph 1018.7mb 52f 51f
3:00pm 5ft 11s 13 18 mph 1019.2mb 52f 51f
2:00pm 5ft 12s 13 18 mph 1019.6mb 52f 51f
1:00pm 5ft 12s 16 18 mph 1019.9mb 52f 51f
12:00pm 5ft 12s 16 18 mph 1020.1mb 52f 51f
11:00am 5ft 12s 16 18 mph 1020mb 52f 51f
10:00am 5ft 13s 13 16 mph 1020.1mb 52f 51f
9:00am 4.5ft 13s 13 16 mph 1020.1mb 52f 51f
8:00am 5ft 13s 13 18 mph 1020.1mb 52f 51f
7:00am 5ft 12s 16 18 mph 1020.2mb 52f 51f
6:00am 5ft 13s 16 20 mph 1020.1mb 52f 51f
5:00am 5ft 13s 16 20 mph 1020.1mb 52f 51f
4:00am 5ft 5s 16 18 mph 1020mb 52f 51f
3:00am 5ft 5s 16 18 mph 1020.3mb 52f 51f
2:00am 5ft 14s 16 18 mph 1020.5mb 52f 51f
1:00am 5ft 14s 16 18 mph 1020.7mb 52f 51f
12:00am 5ft 14s 18 22 mph 1020.7mb 52f 51f
Tue 05/19 11:00pm 5ft 5s 16 20 mph 1020.9mb 53f 51f
10:00pm 4.5ft 10s 18 22 mph 1021.2mb 53f 51f
9:00pm 4.5ft 14s 18 20 mph 1021mb 53f 51f
8:00pm 4.5ft 14s 18 20 mph 1021.1mb 53f 51f
7:00pm 4.5ft 10s 18 20 mph 1021.1mb 53f 51f
6:00pm 4.5ft 10s 16 18 mph 1021.4mb 53f 52f
5:00pm  -   -  18
mph
- - 51f
4:00pm 4.5ft 11s 16 20 mph 1021.9mb 53f 52f
3:00pm 5ft 11s 16 18 mph 1022.1mb 53f 52f
2:00pm 4.5ft 10s 16 18 mph 1022.2mb 53f 52f
1:00pm 4.5ft 10s 16 18 mph 1022.2mb 53f 52f
12:00pm 4.5ft 10s 13 18 mph 1022.4mb 53f 52f
11:00am 4.5ft 11s 13 18 mph 1022.5mb 53f 51f
10:00am 4.5ft 11s 13 18 mph 1022.5mb 53f 51f
9:00am 4.5ft 11s 13 18 mph 1022.4mb 53f 51f
8:00am 4.5ft 10s 13 18 mph 1022.3mb 53f 51f
7:00am 5ft 11s 13 20 mph 1021.9mb 53f 51f
6:00am 5ft 11s 18 22 mph 1021.3mb 53f 51f
5:00am 5ft 11s 18 20 mph 1021.3mb 53f 51f
4:00am 5ft 11s 18 20 mph 1021.2mb 53f 51f
3:00am 4.5ft 11s 16 20 mph 1021.2mb 53f 51f
2:00am 5ft 11s 16 20 mph 1021.1mb 53f 51f
1:00am 5ft 11s 16 20 mph 1021.1mb 53f 51f
12:00am 5ft 10s 16 18 mph 1021.1mb 53f 51f
Mon 05/18 11:00pm 5ft 11s 16 18 mph 1021.5mb 53f 51f
10:00pm 5ft 11s 13 16 mph 1021.5mb 53f 51f
9:00pm 5ft 11s 13 18 mph 1021.2mb 53f 51f
8:00pm 5.5ft 12s 13 16 mph 1021.1mb 53f 51f
7:00pm 5ft 11s 13 18 mph 1020.8mb 53f 51f
6:00pm 5ft 12s 11 13 mph 1021.1mb 53f 51f
5:00pm 5ft 12s 9 13 mph 1021.2mb 53f 51f
4:00pm 5ft 11s 9
mph
1021.3mb 53f 51f
3:00pm 5ft 11s 9 11 mph 1021.3mb 53f 51f
2:00pm 6ft 12s 9 11 mph 1021.1mb 53f 51f
1:00pm 6ft 12s 7 9 mph 1021mb 53f 50f
12:00pm 6ft 11s 7 9 mph 1021.1mb 53f 50f
11:00am 6.5ft 12s 4 7 mph 1021mb 53f 50f